sensor_id;sensor_type;location;lat;lon;timestamp;P1;durP1;ratioP1;P2;durP2;ratioP2
11777;SDS011;5946;51.770;8.548;2023-04-24T00:00:30;1.53;;;0.90;;
11777;SDS011;5946;51.770;8.548;2023-04-24T00:02:56;0.90;;;0.90;;
11777;SDS011;5946;51.770;8.548;2023-04-24T00:05:23;1.87;;;1.10;;
11777;SDS011;5946;51.770;8.548;2023-04-24T00:07:49;1.30;;;1.10;;
11777;SDS011;5946;51.770;8.548;2023-04-24T00:10:17;1.10;;;1.00;;
11777;SDS011;5946;51.770;8.548;2023-04-24T00:12:44;1.00;;;0.90;;
11777;SDS011;5946;51.770;8.548;2023-04-24T00:15:10;1.00;;;1.00;;
11777;SDS011;5946;51.770;8.548;2023-04-24T00:17:36;1.13;;;1.03;;
11777;SDS011;5946;51.770;8.548;2023-04-24T00:20:02;2.77;;;1.10;;
11777;SDS011;5946;51.770;8.548;2023-04-24T00:22:29;2.73;;;1.07;;
11777;SDS011;5946;51.770;8.548;2023-04-24T00:24:56;1.57;;;1.00;;
11777;SDS011;5946;51.770;8.548;2023-04-24T00:27:22;1.10;;;1.00;;
11777;SDS011;5946;51.770;8.548;2023-04-24T00:29:48;1.10;;;1.00;;
11777;SDS011;5946;51.770;8.548;2023-04-24T00:32:14;1.53;;;1.10;;
11777;SDS011;5946;51.770;8.548;2023-04-24T00:34:40;0.80;;;0.80;;
11777;SDS011;5946;51.770;8.548;2023-04-24T00:37:07;1.10;;;1.00;;
11777;SDS011;5946;51.770;8.548;2023-04-24T00:39:33;0.80;;;0.80;;
11777;SDS011;5946;51.770;8.548;2023-04-24T00:41:59;0.80;;;0.80;;
11777;SDS011;5946;51.770;8.548;2023-04-24T00:44:26;0.80;;;0.80;;
11777;SDS011;5946;51.770;8.548;2023-04-24T00:46:52;0.80;;;0.80;;
11777;SDS011;5946;51.770;8.548;2023-04-24T00:49:22;0.90;;;0.90;;
11777;SDS011;5946;51.770;8.548;2023-04-24T00:51:48;1.60;;;1.00;;
11777;SDS011;5946;51.770;8.548;2023-04-24T00:54:16;1.50;;;1.40;;
11777;SDS011;5946;51.770;8.548;2023-04-24T00:56:42;2.10;;;1.30;;
11777;SDS011;5946;51.770;8.548;2023-04-24T00:59:08;1.20;;;1.10;;
11777;SDS011;5946;51.770;8.548;2023-04-24T01:01:34;1.87;;;1.23;;
11777;SDS011;5946;51.770;8.548;2023-04-24T01:04:01;1.23;;;1.13;;
11777;SDS011;5946;51.770;8.548;2023-04-24T01:06:27;1.27;;;1.07;;
11777;SDS011;5946;51.770;8.548;2023-04-24T01:08:54;1.70;;;0.97;;
11777;SDS011;5946;51.770;8.548;2023-04-24T01:11:21;1.30;;;1.20;;
11777;SDS011;5946;51.770;8.548;2023-04-24T01:13:47;1.77;;;1.20;;
11777;SDS011;5946;51.770;8.548;2023-04-24T01:16:13;1.30;;;1.10;;
11777;SDS011;5946;51.770;8.548;2023-04-24T01:18:40;1.10;;;1.10;;
11777;SDS011;5946;51.770;8.548;2023-04-24T01:21:06;1.00;;;1.00;;
11777;SDS011;5946;51.770;8.548;2023-04-24T01:23:34;1.27;;;1.13;;
11777;SDS011;5946;51.770;8.548;2023-04-24T01:26:00;2.50;;;1.10;;
11777;SDS011;5946;51.770;8.548;2023-04-24T01:28:26;0.93;;;0.93;;
11777;SDS011;5946;51.770;8.548;2023-04-24T01:30:52;2.40;;;1.20;;
11777;SDS011;5946;51.770;8.548;2023-04-24T01:33:18;1.87;;;1.03;;
11777;SDS011;5946;51.770;8.548;2023-04-24T01:35:46;1.10;;;1.00;;
11777;SDS011;5946;51.770;8.548;2023-04-24T01:38:12;1.30;;;1.20;;
11777;SDS011;5946;51.770;8.548;2023-04-24T01:40:38;0.90;;;0.90;;
11777;SDS011;5946;51.770;8.548;2023-04-24T01:43:04;3.00;;;1.00;;
11777;SDS011;5946;51.770;8.548;2023-04-24T01:45:30;1.00;;;1.00;;
11777;SDS011;5946;51.770;8.548;2023-04-24T01:47:56;2.77;;;0.97;;
11777;SDS011;5946;51.770;8.548;2023-04-24T01:50:22;1.30;;;1.20;;
11777;SDS011;5946;51.770;8.548;2023-04-24T01:52:48;1.17;;;1.10;;
11777;SDS011;5946;51.770;8.548;2023-04-24T01:55:14;1.27;;;0.97;;
11777;SDS011;5946;51.770;8.548;2023-04-24T01:57:40;1.30;;;1.10;;
11777;SDS011;5946;51.770;8.548;2023-04-24T02:00:07;1.67;;;1.00;;
11777;SDS011;5946;51.770;8.548;2023-04-24T02:02:33;1.40;;;1.27;;
11777;SDS011;5946;51.770;8.548;2023-04-24T02:04:59;3.07;;;0.93;;
11777;SDS011;5946;51.770;8.548;2023-04-24T02:07:25;2.93;;;1.00;;
11777;SDS011;5946;51.770;8.548;2023-04-24T02:09:51;1.00;;;1.00;;
11777;SDS011;5946;51.770;8.548;2023-04-24T02:12:17;0.73;;;0.70;;
11777;SDS011;5946;51.770;8.548;2023-04-24T02:14:43;0.83;;;0.83;;
11777;SDS011;5946;51.770;8.548;2023-04-24T02:17:09;0.93;;;0.93;;
11777;SDS011;5946;51.770;8.548;2023-04-24T02:19:37;1.77;;;1.10;;
11777;SDS011;5946;51.770;8.548;2023-04-24T02:22:04;1.20;;;1.10;;
11777;SDS011;5946;51.770;8.548;2023-04-24T02:24:29;1.07;;;1.00;;
11777;SDS011;5946;51.770;8.548;2023-04-24T02:26:55;1.00;;;0.90;;
11777;SDS011;5946;51.770;8.548;2023-04-24T02:29:22;5.10;;;1.27;;
11777;SDS011;5946;51.770;8.548;2023-04-24T02:31:48;1.30;;;1.20;;
11777;SDS011;5946;51.770;8.548;2023-04-24T02:34:14;1.17;;;1.07;;
11777;SDS011;5946;51.770;8.548;2023-04-24T02:36:41;0.97;;;0.93;;
11777;SDS011;5946;51.770;8.548;2023-04-24T02:39:07;1.33;;;1.00;;
11777;SDS011;5946;51.770;8.548;2023-04-24T02:41:33;1.40;;;1.30;;
11777;SDS011;5946;51.770;8.548;2023-04-24T02:43:59;1.20;;;1.20;;
11777;SDS011;5946;51.770;8.548;2023-04-24T02:46:25;1.27;;;1.10;;
11777;SDS011;5946;51.770;8.548;2023-04-24T02:48:51;0.93;;;0.93;;
11777;SDS011;5946;51.770;8.548;2023-04-24T02:51:17;1.00;;;1.00;;
11777;SDS011;5946;51.770;8.548;2023-04-24T02:53:43;1.10;;;1.00;;
11777;SDS011;5946;51.770;8.548;2023-04-24T02:56:09;1.67;;;1.10;;
11777;SDS011;5946;51.770;8.548;2023-04-24T02:58:37;1.30;;;1.20;;
11777;SDS011;5946;51.770;8.548;2023-04-24T03:01:03;2.40;;;1.30;;
11777;SDS011;5946;51.770;8.548;2023-04-24T03:03:29;1.30;;;1.20;;
11777;SDS011;5946;51.770;8.548;2023-04-24T03:05:55;3.00;;;1.27;;
11777;SDS011;5946;51.770;8.548;2023-04-24T03:08:22;1.20;;;1.10;;
11777;SDS011;5946;51.770;8.548;2023-04-24T03:10:48;2.40;;;1.50;;
11777;SDS011;5946;51.770;8.548;2023-04-24T03:13:15;2.03;;;1.30;;
11777;SDS011;5946;51.770;8.548;2023-04-24T03:15:41;1.40;;;1.30;;
11777;SDS011;5946;51.770;8.548;2023-04-24T03:18:07;1.40;;;1.30;;
11777;SDS011;5946;51.770;8.548;2023-04-24T03:20:33;1.90;;;1.20;;
11777;SDS011;5946;51.770;8.548;2023-04-24T03:23:01;2.57;;;1.67;;
11777;SDS011;5946;51.770;8.548;2023-04-24T03:25:27;1.40;;;1.30;;
11777;SDS011;5946;51.770;8.548;2023-04-24T03:27:53;1.40;;;1.30;;
11777;SDS011;5946;51.770;8.548;2023-04-24T03:30:19;1.87;;;1.40;;
11777;SDS011;5946;51.770;8.548;2023-04-24T03:32:45;2.87;;;1.53;;
11777;SDS011;5946;51.770;8.548;2023-04-24T03:35:11;2.10;;;1.70;;
11777;SDS011;5946;51.770;8.548;2023-04-24T03:37:37;2.87;;;1.90;;
11777;SDS011;5946;51.770;8.548;2023-04-24T03:40:03;2.03;;;1.90;;
11777;SDS011;5946;51.770;8.548;2023-04-24T03:42:30;3.23;;;1.70;;
11777;SDS011;5946;51.770;8.548;2023-04-24T03:44:56;1.73;;;1.63;;
11777;SDS011;5946;51.770;8.548;2023-04-24T03:47:22;2.20;;;2.00;;
11777;SDS011;5946;51.770;8.548;2023-04-24T03:49:48;2.33;;;1.53;;
11777;SDS011;5946;51.770;8.548;2023-04-24T03:52:14;2.23;;;1.47;;
11777;SDS011;5946;51.770;8.548;2023-04-24T03:54:40;2.47;;;1.80;;
11777;SDS011;5946;51.770;8.548;2023-04-24T03:57:06;4.17;;;1.60;;
11777;SDS011;5946;51.770;8.548;2023-04-24T03:59:32;2.17;;;1.87;;
11777;SDS011;5946;51.770;8.548;2023-04-24T04:01:58;1.90;;;1.80;;
11777;SDS011;5946;51.770;8.548;2023-04-24T04:04:24;4.80;;;1.60;;
11777;SDS011;5946;51.770;8.548;2023-04-24T04:06:50;3.00;;;1.80;;
11777;SDS011;5946;51.770;8.548;2023-04-24T04:09:17;1.97;;;1.87;;
11777;SDS011;5946;51.770;8.548;2023-04-24T04:11:43;1.97;;;1.77;;
11777;SDS011;5946;51.770;8.548;2023-04-24T04:14:09;2.33;;;2.07;;
11777;SDS011;5946;51.770;8.548;2023-04-24T04:16:35;2.50;;;2.13;;
11777;SDS011;5946;51.770;8.548;2023-04-24T04:19:01;2.63;;;2.33;;
11777;SDS011;5946;51.770;8.548;2023-04-24T04:21:28;5.67;;;2.60;;
11777;SDS011;5946;51.770;8.548;2023-04-24T04:23:54;2.53;;;2.33;;
11777;SDS011;5946;51.770;8.548;2023-04-24T04:26:19;5.40;;;2.57;;
11777;SDS011;5946;51.770;8.548;2023-04-24T04:28:46;3.77;;;3.03;;
11777;SDS011;5946;51.770;8.548;2023-04-24T04:31:12;4.43;;;2.80;;
11777;SDS011;5946;51.770;8.548;2023-04-24T04:33:38;4.07;;;3.10;;
11777;SDS011;5946;51.770;8.548;2023-04-24T04:36:04;3.00;;;2.70;;
11777;SDS011;5946;51.770;8.548;2023-04-24T04:38:30;3.90;;;3.00;;
11777;SDS011;5946;51.770;8.548;2023-04-24T04:40:56;3.03;;;2.73;;
11777;SDS011;5946;51.770;8.548;2023-04-24T04:43:23;3.10;;;2.87;;
11777;SDS011;5946;51.770;8.548;2023-04-24T04:45:49;3.80;;;3.33;;
11777;SDS011;5946;51.770;8.548;2023-04-24T04:48:16;3.60;;;3.20;;
11777;SDS011;5946;51.770;8.548;2023-04-24T04:50:42;4.37;;;3.07;;
11777;SDS011;5946;51.770;8.548;2023-04-24T04:53:08;5.00;;;3.63;;
11777;SDS011;5946;51.770;8.548;2023-04-24T04:55:34;5.53;;;5.03;;
11777;SDS011;5946;51.770;8.548;2023-04-24T04:58:00;10.20;;;8.30;;
11777;SDS011;5946;51.770;8.548;2023-04-24T05:00:26;11.10;;;9.47;;
11777;SDS011;5946;51.770;8.548;2023-04-24T05:02:53;10.07;;;9.00;;
11777;SDS011;5946;51.770;8.548;2023-04-24T05:05:19;12.33;;;11.03;;
11777;SDS011;5946;51.770;8.548;2023-04-24T05:07:45;12.20;;;10.90;;
11777;SDS011;5946;51.770;8.548;2023-04-24T05:10:11;12.30;;;10.80;;
11777;SDS011;5946;51.770;8.548;2023-04-24T05:12:38;13.23;;;10.70;;
11777;SDS011;5946;51.770;8.548;2023-04-24T05:15:04;12.53;;;10.70;;
11777;SDS011;5946;51.770;8.548;2023-04-24T05:17:30;13.53;;;11.60;;
11777;SDS011;5946;51.770;8.548;2023-04-24T05:19:56;13.03;;;11.07;;
11777;SDS011;5946;51.770;8.548;2023-04-24T05:22:22;13.33;;;10.90;;
11777;SDS011;5946;51.770;8.548;2023-04-24T05:24:48;14.10;;;11.03;;
11777;SDS011;5946;51.770;8.548;2023-04-24T05:27:14;14.20;;;11.30;;
11777;SDS011;5946;51.770;8.548;2023-04-24T05:29:40;12.63;;;10.97;;
11777;SDS011;5946;51.770;8.548;2023-04-24T05:32:06;13.50;;;10.30;;
11777;SDS011;5946;51.770;8.548;2023-04-24T05:34:32;15.27;;;10.37;;
11777;SDS011;5946;51.770;8.548;2023-04-24T05:36:58;11.60;;;9.87;;
11777;SDS011;5946;51.770;8.548;2023-04-24T05:39:24;16.13;;;10.07;;
11777;SDS011;5946;51.770;8.548;2023-04-24T05:41:51;10.97;;;9.77;;
11777;SDS011;5946;51.770;8.548;2023-04-24T05:44:17;14.07;;;10.33;;
11777;SDS011;5946;51.770;8.548;2023-04-24T05:46:43;11.60;;;9.57;;
11777;SDS011;5946;51.770;8.548;2023-04-24T05:49:15;12.40;;;9.73;;
11777;SDS011;5946;51.770;8.548;2023-04-24T05:51:41;12.10;;;10.80;;
11777;SDS011;5946;51.770;8.548;2023-04-24T05:54:07;11.83;;;10.53;;
11777;SDS011;5946;51.770;8.548;2023-04-24T05:56:33;16.63;;;10.40;;
11777;SDS011;5946;51.770;8.548;2023-04-24T05:58:59;11.20;;;10.00;;
11777;SDS011;5946;51.770;8.548;2023-04-24T06:01:25;15.17;;;10.67;;
11777;SDS011;5946;51.770;8.548;2023-04-24T06:03:51;14.40;;;10.67;;
11777;SDS011;5946;51.770;8.548;2023-04-24T06:06:18;11.77;;;10.40;;
11777;SDS011;5946;51.770;8.548;2023-04-24T06:08:44;11.13;;;9.93;;
11777;SDS011;5946;51.770;8.548;2023-04-24T06:11:10;11.50;;;9.67;;
11777;SDS011;5946;51.770;8.548;2023-04-24T06:13:36;10.97;;;9.20;;
11777;SDS011;5946;51.770;8.548;2023-04-24T06:16:02;12.63;;;9.90;;
11777;SDS011;5946;51.770;8.548;2023-04-24T06:18:28;13.63;;;9.40;;
11777;SDS011;5946;51.770;8.548;2023-04-24T06:20:54;11.73;;;9.63;;
11777;SDS011;5946;51.770;8.548;2023-04-24T06:23:20;13.80;;;9.47;;
11777;SDS011;5946;51.770;8.548;2023-04-24T06:25:46;10.60;;;9.27;;
11777;SDS011;5946;51.770;8.548;2023-04-24T06:28:12;11.67;;;9.07;;
11777;SDS011;5946;51.770;8.548;2023-04-24T06:30:38;14.17;;;9.70;;
11777;SDS011;5946;51.770;8.548;2023-04-24T06:33:04;10.40;;;9.03;;
11777;SDS011;5946;51.770;8.548;2023-04-24T06:35:30;10.83;;;9.40;;
11777;SDS011;5946;51.770;8.548;2023-04-24T06:37:56;11.20;;;9.70;;
11777;SDS011;5946;51.770;8.548;2023-04-24T06:40:22;13.27;;;9.30;;
11777;SDS011;5946;51.770;8.548;2023-04-24T06:42:48;12.47;;;9.40;;
11777;SDS011;5946;51.770;8.548;2023-04-24T06:45:14;10.93;;;9.03;;
11777;SDS011;5946;51.770;8.548;2023-04-24T06:47:40;11.87;;;8.93;;
11777;SDS011;5946;51.770;8.548;2023-04-24T06:50:06;11.23;;;8.90;;
11777;SDS011;5946;51.770;8.548;2023-04-24T06:52:32;9.33;;;7.83;;
11777;SDS011;5946;51.770;8.548;2023-04-24T06:55:02;10.17;;;9.00;;
11777;SDS011;5946;51.770;8.548;2023-04-24T06:57:28;10.43;;;8.10;;
11777;SDS011;5946;51.770;8.548;2023-04-24T06:59:54;10.47;;;7.83;;
11777;SDS011;5946;51.770;8.548;2023-04-24T07:02:20;8.73;;;7.07;;
11777;SDS011;5946;51.770;8.548;2023-04-24T07:04:46;8.77;;;7.30;;
11777;SDS011;5946;51.770;8.548;2023-04-24T07:07:12;10.20;;;7.53;;
11777;SDS011;5946;51.770;8.548;2023-04-24T07:09:41;7.90;;;7.10;;
11777;SDS011;5946;51.770;8.548;2023-04-24T07:12:09;8.00;;;7.17;;
11777;SDS011;5946;51.770;8.548;2023-04-24T07:14:35;9.33;;;7.37;;
11777;SDS011;5946;51.770;8.548;2023-04-24T07:17:02;13.00;;;7.73;;
11777;SDS011;5946;51.770;8.548;2023-04-24T07:19:28;8.87;;;6.77;;
11777;SDS011;5946;51.770;8.548;2023-04-24T07:21:54;8.43;;;7.10;;
11777;SDS011;5946;51.770;8.548;2023-04-24T07:24:20;7.97;;;7.10;;
11777;SDS011;5946;51.770;8.548;2023-04-24T07:26:46;9.57;;;6.80;;
11777;SDS011;5946;51.770;8.548;2023-04-24T07:29:12;8.93;;;7.10;;
11777;SDS011;5946;51.770;8.548;2023-04-24T07:31:39;8.43;;;7.23;;
11777;SDS011;5946;51.770;8.548;2023-04-24T07:34:06;8.50;;;7.50;;
11777;SDS011;5946;51.770;8.548;2023-04-24T07:36:32;10.27;;;6.93;;
11777;SDS011;5946;51.770;8.548;2023-04-24T07:38:58;7.40;;;6.60;;
11777;SDS011;5946;51.770;8.548;2023-04-24T07:41:24;9.43;;;6.97;;
11777;SDS011;5946;51.770;8.548;2023-04-24T07:43:50;7.27;;;6.57;;
11777;SDS011;5946;51.770;8.548;2023-04-24T07:46:17;7.57;;;6.20;;
11777;SDS011;5946;51.770;8.548;2023-04-24T07:48:43;7.67;;;6.37;;
11777;SDS011;5946;51.770;8.548;2023-04-24T07:51:09;7.53;;;6.37;;
11777;SDS011;5946;51.770;8.548;2023-04-24T07:53:38;7.13;;;6.17;;
11777;SDS011;5946;51.770;8.548;2023-04-24T07:56:04;6.50;;;5.90;;
11777;SDS011;5946;51.770;8.548;2023-04-24T07:58:30;6.57;;;5.87;;
11777;SDS011;5946;51.770;8.548;2023-04-24T08:00:56;5.67;;;5.00;;
11777;SDS011;5946;51.770;8.548;2023-04-24T08:03:22;5.07;;;4.57;;
11777;SDS011;5946;51.770;8.548;2023-04-24T08:05:48;8.17;;;4.90;;
11777;SDS011;5946;51.770;8.548;2023-04-24T08:08:15;5.10;;;4.40;;
11777;SDS011;5946;51.770;8.548;2023-04-24T08:10:41;5.03;;;4.53;;
11777;SDS011;5946;51.770;8.548;2023-04-24T08:13:07;5.83;;;4.53;;
11777;SDS011;5946;51.770;8.548;2023-04-24T08:15:33;5.13;;;4.30;;
11777;SDS011;5946;51.770;8.548;2023-04-24T08:18:00;5.13;;;4.17;;
11777;SDS011;5946;51.770;8.548;2023-04-24T08:20:26;4.37;;;3.97;;
11777;SDS011;5946;51.770;8.548;2023-04-24T08:22:52;4.77;;;4.27;;
11777;SDS011;5946;51.770;8.548;2023-04-24T08:25:18;5.33;;;3.70;;
11777;SDS011;5946;51.770;8.548;2023-04-24T08:27:45;4.27;;;3.87;;
11777;SDS011;5946;51.770;8.548;2023-04-24T08:30:11;5.40;;;3.77;;
11777;SDS011;5946;51.770;8.548;2023-04-24T08:32:37;5.40;;;3.80;;
11777;SDS011;5946;51.770;8.548;2023-04-24T08:35:03;5.40;;;3.90;;
11777;SDS011;5946;51.770;8.548;2023-04-24T08:37:29;6.17;;;4.30;;
11777;SDS011;5946;51.770;8.548;2023-04-24T08:39:55;5.17;;;3.70;;
11777;SDS011;5946;51.770;8.548;2023-04-24T08:42:21;4.70;;;3.93;;
11777;SDS011;5946;51.770;8.548;2023-04-24T08:44:48;4.83;;;3.50;;
11777;SDS011;5946;51.770;8.548;2023-04-24T08:47:14;5.67;;;3.60;;
11777;SDS011;5946;51.770;8.548;2023-04-24T08:49:40;3.97;;;3.57;;
11777;SDS011;5946;51.770;8.548;2023-04-24T08:52:07;5.67;;;3.50;;
11777;SDS011;5946;51.770;8.548;2023-04-24T08:54:36;4.57;;;3.47;;
11777;SDS011;5946;51.770;8.548;2023-04-24T08:57:03;4.27;;;3.30;;
11777;SDS011;5946;51.770;8.548;2023-04-24T08:59:29;3.63;;;3.10;;
11777;SDS011;5946;51.770;8.548;2023-04-24T09:01:56;4.10;;;2.60;;
11777;SDS011;5946;51.770;8.548;2023-04-24T09:04:23;3.23;;;2.93;;
11777;SDS011;5946;51.770;8.548;2023-04-24T09:06:53;3.73;;;2.80;;
11777;SDS011;5946;51.770;8.548;2023-04-24T09:09:20;4.20;;;3.00;;
11777;SDS011;5946;51.770;8.548;2023-04-24T09:11:47;3.20;;;2.90;;
11777;SDS011;5946;51.770;8.548;2023-04-24T09:14:14;3.03;;;2.60;;
11777;SDS011;5946;51.770;8.548;2023-04-24T09:16:41;2.33;;;2.13;;
11777;SDS011;5946;51.770;8.548;2023-04-24T09:19:07;2.03;;;1.67;;
11777;SDS011;5946;51.770;8.548;2023-04-24T09:21:33;4.37;;;1.70;;
11777;SDS011;5946;51.770;8.548;2023-04-24T09:24:00;1.73;;;1.60;;
11777;SDS011;5946;51.770;8.548;2023-04-24T09:26:29;5.60;;;1.50;;
11777;SDS011;5946;51.770;8.548;2023-04-24T09:28:56;1.40;;;1.30;;
11777;SDS011;5946;51.770;8.548;2023-04-24T09:31:22;3.57;;;1.30;;
11777;SDS011;5946;51.770;8.548;2023-04-24T09:33:59;1.30;;;1.20;;
11777;SDS011;5946;51.770;8.548;2023-04-24T09:39:00;1.87;;;1.10;;
11777;SDS011;5946;51.770;8.548;2023-04-24T09:41:27;7.20;;;1.10;;
11777;SDS011;5946;51.770;8.548;2023-04-24T09:43:54;1.10;;;1.10;;
11777;SDS011;5946;51.770;8.548;2023-04-24T09:46:20;6.30;;;1.10;;
11777;SDS011;5946;51.770;8.548;2023-04-24T09:48:47;2.37;;;0.80;;
11777;SDS011;5946;51.770;8.548;2023-04-24T09:51:13;3.40;;;1.10;;
11777;SDS011;5946;51.770;8.548;2023-04-24T09:53:44;1.60;;;0.80;;
11777;SDS011;5946;51.770;8.548;2023-04-24T09:56:11;1.80;;;0.90;;
11777;SDS011;5946;51.770;8.548;2023-04-24T09:58:38;3.50;;;0.93;;
11777;SDS011;5946;51.770;8.548;2023-04-24T10:01:04;2.30;;;0.90;;
11777;SDS011;5946;51.770;8.548;2023-04-24T10:03:33;0.73;;;0.73;;
11777;SDS011;5946;51.770;8.548;2023-04-24T10:06:00;1.17;;;0.90;;
11777;SDS011;5946;51.770;8.548;2023-04-24T10:08:26;0.80;;;0.80;;
11777;SDS011;5946;51.770;8.548;2023-04-24T10:10:52;1.17;;;0.80;;
11777;SDS011;5946;51.770;8.548;2023-04-24T10:13:18;0.83;;;0.83;;
11777;SDS011;5946;51.770;8.548;2023-04-24T10:15:44;0.80;;;0.80;;
11777;SDS011;5946;51.770;8.548;2023-04-24T10:18:11;1.40;;;0.60;;
11777;SDS011;5946;51.770;8.548;2023-04-24T10:20:38;0.70;;;0.70;;
11777;SDS011;5946;51.770;8.548;2023-04-24T10:23:05;1.93;;;1.10;;
11777;SDS011;5946;51.770;8.548;2023-04-24T10:25:32;1.10;;;1.00;;
11777;SDS011;5946;51.770;8.548;2023-04-24T10:27:58;1.80;;;0.57;;
11777;SDS011;5946;51.770;8.548;2023-04-24T10:30:29;2.67;;;0.70;;
11777;SDS011;5946;51.770;8.548;2023-04-24T10:32:55;3.47;;;0.80;;
11777;SDS011;5946;51.770;8.548;2023-04-24T10:35:21;0.63;;;0.63;;
11777;SDS011;5946;51.770;8.548;2023-04-24T10:37:50;0.97;;;0.80;;
11777;SDS011;5946;51.770;8.548;2023-04-24T10:40:19;1.10;;;0.50;;
11777;SDS011;5946;51.770;8.548;2023-04-24T10:42:51;4.53;;;0.60;;
11777;SDS011;5946;51.770;8.548;2023-04-24T10:45:21;0.87;;;0.57;;
11777;SDS011;5946;51.770;8.548;2023-04-24T10:48:20;0.93;;;0.70;;
11777;SDS011;5946;51.770;8.548;2023-04-24T10:50:46;1.70;;;0.70;;
11777;SDS011;5946;51.770;8.548;2023-04-24T10:53:14;1.57;;;0.93;;
11777;SDS011;5946;51.770;8.548;2023-04-24T10:55:44;1.03;;;0.90;;
11777;SDS011;5946;51.770;8.548;2023-04-24T10:58:11;1.47;;;1.00;;
11777;SDS011;5946;51.770;8.548;2023-04-24T11:00:37;1.10;;;1.00;;
11777;SDS011;5946;51.770;8.548;2023-04-24T11:03:04;1.10;;;1.10;;
11777;SDS011;5946;51.770;8.548;2023-04-24T11:06:04;1.53;;;1.43;;
11777;SDS011;5946;51.770;8.548;2023-04-24T11:08:24;5.70;;;2.00;;
11777;SDS011;5946;51.770;8.548;2023-04-24T11:10:54;2.13;;;1.97;;
11777;SDS011;5946;51.770;8.548;2023-04-24T11:13:22;1.43;;;1.33;;
11777;SDS011;5946;51.770;8.548;2023-04-24T11:16:11;1.50;;;1.40;;
11777;SDS011;5946;51.770;8.548;2023-04-24T11:18:38;2.23;;;1.90;;
11777;SDS011;5946;51.770;8.548;2023-04-24T11:21:17;3.37;;;2.50;;
11777;SDS011;5946;51.770;8.548;2023-04-24T11:23:46;2.33;;;2.13;;
11777;SDS011;5946;51.770;8.548;2023-04-24T11:26:14;3.23;;;3.03;;
11777;SDS011;5946;51.770;8.548;2023-04-24T11:28:46;3.50;;;3.20;;
11777;SDS011;5946;51.770;8.548;2023-04-24T11:33:57;4.33;;;3.93;;
11777;SDS011;5946;51.770;8.548;2023-04-24T11:36:28;4.40;;;4.10;;
11777;SDS011;5946;51.770;8.548;2023-04-24T11:38:57;4.70;;;4.30;;
11777;SDS011;5946;51.770;8.548;2023-04-24T11:41:23;4.83;;;4.43;;
11777;SDS011;5946;51.770;8.548;2023-04-24T11:43:50;4.70;;;4.20;;
11777;SDS011;5946;51.770;8.548;2023-04-24T11:46:17;4.17;;;3.77;;
11777;SDS011;5946;51.770;8.548;2023-04-24T11:48:46;4.70;;;4.30;;
11777;SDS011;5946;51.770;8.548;2023-04-24T11:51:12;6.13;;;5.53;;
11777;SDS011;5946;51.770;8.548;2023-04-24T11:53:38;5.87;;;5.37;;
11777;SDS011;5946;51.770;8.548;2023-04-24T11:56:04;8.90;;;5.90;;
11777;SDS011;5946;51.770;8.548;2023-04-24T11:58:40;5.70;;;4.73;;
11777;SDS011;5946;51.770;8.548;2023-04-24T12:01:06;4.87;;;4.20;;
11777;SDS011;5946;51.770;8.548;2023-04-24T12:03:32;4.47;;;4.00;;
11777;SDS011;5946;51.770;8.548;2023-04-24T12:06:07;6.43;;;3.50;;
11777;SDS011;5946;51.770;8.548;2023-04-24T12:08:34;3.60;;;3.30;;
11777;SDS011;5946;51.770;8.548;2023-04-24T12:11:04;3.50;;;3.20;;
11777;SDS011;5946;51.770;8.548;2023-04-24T12:13:32;4.77;;;3.33;;
11777;SDS011;5946;51.770;8.548;2023-04-24T12:15:58;4.43;;;3.60;;
11777;SDS011;5946;51.770;8.548;2023-04-24T12:18:24;6.47;;;4.10;;
11777;SDS011;5946;51.770;8.548;2023-04-24T12:20:50;6.70;;;4.63;;
11777;SDS011;5946;51.770;8.548;2023-04-24T12:23:16;6.87;;;4.47;;
11777;SDS011;5946;51.770;8.548;2023-04-24T12:25:42;8.43;;;5.17;;
11777;SDS011;5946;51.770;8.548;2023-04-24T12:28:09;7.97;;;5.20;;
11777;SDS011;5946;51.770;8.548;2023-04-24T12:30:42;9.13;;;6.17;;
11777;SDS011;5946;51.770;8.548;2023-04-24T12:33:16;8.67;;;6.13;;
11777;SDS011;5946;51.770;8.548;2023-04-24T12:35:42;8.07;;;6.30;;
11777;SDS011;5946;51.770;8.548;2023-04-24T12:38:09;7.80;;;6.07;;
11777;SDS011;5946;51.770;8.548;2023-04-24T12:40:36;8.30;;;6.10;;
11777;SDS011;5946;51.770;8.548;2023-04-24T12:43:02;7.97;;;5.93;;
11777;SDS011;5946;51.770;8.548;2023-04-24T12:45:38;9.30;;;6.30;;
11777;SDS011;5946;51.770;8.548;2023-04-24T12:48:04;10.43;;;6.80;;
11777;SDS011;5946;51.770;8.548;2023-04-24T12:50:30;10.93;;;7.00;;
11777;SDS011;5946;51.770;8.548;2023-04-24T12:52:56;10.03;;;7.30;;
11777;SDS011;5946;51.770;8.548;2023-04-24T12:55:22;11.60;;;8.07;;
11777;SDS011;5946;51.770;8.548;2023-04-24T12:57:48;16.90;;;8.33;;
11777;SDS011;5946;51.770;8.548;2023-04-24T13:00:14;15.73;;;8.50;;
11777;SDS011;5946;51.770;8.548;2023-04-24T13:02:40;18.10;;;9.10;;
11777;SDS011;5946;51.770;8.548;2023-04-24T13:05:06;16.37;;;8.80;;
11777;SDS011;5946;51.770;8.548;2023-04-24T13:07:32;17.07;;;8.97;;
11777;SDS011;5946;51.770;8.548;2023-04-24T13:09:58;16.80;;;8.97;;
11777;SDS011;5946;51.770;8.548;2023-04-24T13:12:25;15.40;;;9.20;;
11777;SDS011;5946;51.770;8.548;2023-04-24T13:14:51;18.80;;;9.70;;
11777;SDS011;5946;51.770;8.548;2023-04-24T13:17:17;19.37;;;9.53;;
11777;SDS011;5946;51.770;8.548;2023-04-24T13:19:44;16.87;;;9.53;;
11777;SDS011;5946;51.770;8.548;2023-04-24T13:22:11;17.17;;;10.03;;
11777;SDS011;5946;51.770;8.548;2023-04-24T13:24:37;16.30;;;10.40;;
11777;SDS011;5946;51.770;8.548;2023-04-24T13:27:06;20.13;;;10.63;;
11777;SDS011;5946;51.770;8.548;2023-04-24T13:29:32;17.87;;;9.77;;
11777;SDS011;5946;51.770;8.548;2023-04-24T13:31:58;18.70;;;10.53;;
11777;SDS011;5946;51.770;8.548;2023-04-24T13:34:24;18.23;;;9.77;;
11777;SDS011;5946;51.770;8.548;2023-04-24T13:36:53;18.17;;;9.53;;
11777;SDS011;5946;51.770;8.548;2023-04-24T13:39:20;22.17;;;11.03;;
11777;SDS011;5946;51.770;8.548;2023-04-24T13:41:46;24.40;;;11.97;;
11777;SDS011;5946;51.770;8.548;2023-04-24T13:44:13;20.57;;;10.60;;
11777;SDS011;5946;51.770;8.548;2023-04-24T13:46:39;20.43;;;11.53;;
11777;SDS011;5946;51.770;8.548;2023-04-24T13:49:05;24.47;;;11.97;;
11777;SDS011;5946;51.770;8.548;2023-04-24T13:51:32;24.70;;;12.77;;
11777;SDS011;5946;51.770;8.548;2023-04-24T13:53:58;22.60;;;13.07;;
11777;SDS011;5946;51.770;8.548;2023-04-24T13:56:24;25.80;;;12.93;;
11777;SDS011;5946;51.770;8.548;2023-04-24T13:58:51;22.57;;;13.47;;
11777;SDS011;5946;51.770;8.548;2023-04-24T14:01:19;19.60;;;12.77;;
11777;SDS011;5946;51.770;8.548;2023-04-24T14:03:46;21.47;;;12.40;;
11777;SDS011;5946;51.770;8.548;2023-04-24T14:06:12;19.57;;;12.23;;
11777;SDS011;5946;51.770;8.548;2023-04-24T14:08:38;24.60;;;12.77;;
11777;SDS011;5946;51.770;8.548;2023-04-24T14:11:04;25.87;;;12.87;;
11777;SDS011;5946;51.770;8.548;2023-04-24T14:13:29;22.73;;;13.23;;
11777;SDS011;5946;51.770;8.548;2023-04-24T14:15:56;23.40;;;14.47;;
11777;SDS011;5946;51.770;8.548;2023-04-24T14:18:21;28.50;;;14.57;;
11777;SDS011;5946;51.770;8.548;2023-04-24T14:20:47;25.63;;;14.10;;
11777;SDS011;5946;51.770;8.548;2023-04-24T14:23:13;21.70;;;14.10;;
11777;SDS011;5946;51.770;8.548;2023-04-24T14:25:39;27.20;;;14.27;;
11777;SDS011;5946;51.770;8.548;2023-04-24T14:28:06;25.70;;;14.50;;
11777;SDS011;5946;51.770;8.548;2023-04-24T14:30:32;24.30;;;14.20;;
11777;SDS011;5946;51.770;8.548;2023-04-24T14:32:58;30.10;;;14.13;;
11777;SDS011;5946;51.770;8.548;2023-04-24T14:35:24;25.73;;;12.33;;
11777;SDS011;5946;51.770;8.548;2023-04-24T14:37:50;23.03;;;12.27;;
11777;SDS011;5946;51.770;8.548;2023-04-24T14:40:16;17.67;;;10.63;;
11777;SDS011;5946;51.770;8.548;2023-04-24T14:42:42;20.83;;;10.67;;
11777;SDS011;5946;51.770;8.548;2023-04-24T14:45:08;16.30;;;9.77;;
11777;SDS011;5946;51.770;8.548;2023-04-24T14:47:35;13.93;;;9.70;;
11777;SDS011;5946;51.770;8.548;2023-04-24T14:50:02;14.47;;;9.20;;
11777;SDS011;5946;51.770;8.548;2023-04-24T14:52:28;12.47;;;7.80;;
11777;SDS011;5946;51.770;8.548;2023-04-24T14:54:54;12.40;;;7.43;;
11777;SDS011;5946;51.770;8.548;2023-04-24T14:57:21;12.97;;;6.17;;